• Join FlightAware (Why Join?)
  • Login
  • US Flag 
04:09AM EDT


 

Airport Tracker/Info


-or-


 

Live Flight TrackerFlight Track Log ✈ LJY680 ✈ 16-Jun-2013 ✈ KILM - KLBE

Flight Track Log - Related Links

Times and Time Zones

All times are in EDT time to prevent confusion due to time zone crossing. See the LJY680 flight status page for this flight to view local times or setup timezone preferences in your user account.

Time Position Orientation Groundspeed Altitude Reporting Facility
EDT Latitude Longitude Course Direction KTS MPH feet Rate Location/Type
11:44AM 34.2225 -78.0056 345° North 246 283 6,400  Level Washington Center
11:45AM 34.2458 -78.0917 288° West 265 305 9,900 4,020 Climbing Washington Center
11:46AM 34.3331 -78.1144 348° North 241 277 14,400 3,960 Climbing Washington Center
11:47AM 34.4203 -78.1297 352° North 268 308 17,700 3,000 Climbing Washington Center
11:48AM 34.5158 -78.1478 351° North 307 353 20,500 2,760 Climbing Washington Center
11:49AM 34.8133 -78.0273 346° North  Level FlightAware Approximate
11:49AM 34.6156 -78.1686 350° North 339 390 23,300  Level Washington Center
11:50AM 34.9042 -78.0458 345° North  Level FlightAware Approximate
11:50AM 34.7194 -78.1922 349° North 367 422 25,300  Level Washington Center
11:51AM 34.8044 -78.2125 349° North 379 436 27,200 1,920 Climbing Washington Center
11:52AM 34.9186 -78.2414 348° North 384 442 29,100 1,920 Climbing Washington Center
11:53AM 35.0281 -78.2908 340° North 397 457 31,100 1,980 Climbing Washington Center
11:54AM 35.1314 -78.3372 340° North 402 463 33,200 1,800 Climbing Washington Center
11:55AM 35.2367 -78.3842 340° North 402 463 34,800 840 Climbing Washington Center
11:56AM 35.3647 -78.4422 340° North 413 475 35,000 60 Climbing Washington Center
11:57AM 35.4783 -78.4922 340° North 436 502 35,000  Level Washington Center
11:58AM 35.5919 -78.5422 340° North 430 495 35,000  Level Washington Center
11:59AM 35.7117 -78.5953 340° North 442 509 35,000  Level Washington Center
12:00PM 35.8269 -78.6483 340° North 442 509 35,000  Level Washington Center
12:01PM 35.9425 -78.6989 340° North 442 509 35,000  Level Washington Center
12:02PM 36.0600 -78.7522 340° North 442 509 35,000 -480 Level Washington Center
12:03PM 36.1756 -78.8058 339° North 442 509 34,100 -960 Descending Washington Center
12:04PM 36.2847 -78.8567 339° North 437 503 33,100 -600 Descending Washington Center
12:05PM 36.4003 -78.9081 340° North 432 497 33,000 -60 Descending Washington Center
12:06PM 36.5175 -78.9622 340° North 432 497 33,000  Level Washington Center
12:07PM 36.6328 -79.0164 339° North 437 503 33,000  Level Washington Center
12:08PM 36.7461 -79.0653 341° North 437 503 33,000  Level Washington Center
12:09PM 36.8636 -79.1200 340° North 443 510 33,000  Level Washington Center
12:10PM 36.9789 -79.1747 339° North 443 510 33,000 -480 Level Washington Center
12:11PM 37.0961 -79.2294 340° North 443 510 32,100 -960 Descending Washington Center
12:12PM 37.2011 -79.2764 340° North 443 510 31,100 -600 Descending Washington Center
12:13PM 37.3161 -79.3314 339° North 443 510 31,000 -240 Descending Washington Center
12:14PM 37.4250 -79.3811 340° North 436 502 30,700 -720 Descending Washington Center
12:15PM 37.5464 -79.4397 339° North 452 520 29,600 -900 Descending Washington Center
12:16PM 37.6758 -79.5014 339° North 452 520 29,000 -360 Descending Washington Center
12:17PM 37.7803 -79.5542 338° Northwest 446 513 29,000  Level Washington Center
12:18PM 37.8933 -79.6075 340° North 439 505 29,000 -420 Level Washington Center
12:19PM 38.0128 -79.6558 342° North 426 490 28,200 -960 Descending Washington Center
12:20PM 38.1336 -79.6597 359° North 421 484 27,100 -1,320 Descending Washington Center
12:21PM 38.2569 -79.6481 North 426 490 25,700 -1,560 Descending Washington Center
12:22PM 38.3761 -79.6361 North 431 496 24,100 -1,380 Descending Washington Center
12:23PM 38.4767 -79.6231 North 425 489 23,000 -600 Descending Washington Center
12:24PM 38.5983 -79.6083 North 420 483 23,000 -1,020 Level Washington Center
12:26PM 38.8058 -79.5817 North 408 470 20,300 -1,440 Descending Cleveland Center
12:27PM 38.9142 -79.5642 North 394 453 19,000 -660 Descending Cleveland Center
12:28PM 39.0142 -79.5547 North 378 435 19,000  Level Cleveland Center
12:29PM 39.1161 -79.5397 North 366 421 19,000 -180 Level Cleveland Center
12:30PM 39.2222 -79.5356 North 366 421 18,700 -1,200 Descending Cleveland Center
12:31PM 39.3283 -79.5150 North 372 428 16,700 -2,100 Descending Cleveland Center
12:32PM 39.4261 -79.4975 North 366 421 14,600 -2,460 Descending Cleveland Center
12:33PM 39.4908 -79.4936 North 351 404 12,900 -2,100 Descending Cleveland Center
12:33PM 39.5219 -79.4878 North 354 407 12,500 -1,980 Descending Cleveland Center
12:33PM 39.5617 -79.4844 North 350 403 11,300 -2,100 Descending Cleveland Center
12:34PM 39.6158 -79.4783 North 343 395 10,400 -2,160 Descending Cleveland Center
12:34PM 39.6428 -79.4778 North 322 371 9,400 -1,500 Descending Cleveland Center
12:35PM 39.6989 -79.4689 North 319 367 8,900 -1,140 Descending Cleveland Center
12:35PM 39.7281 -79.4683 North 292 336 8,300 -1,020 Descending Cleveland Center
12:36PM 39.7697 -79.4622 North 293 337 7,900 -1,020 Descending Cleveland Center
12:36PM 39.8053 -79.4617 North 284 327 7,300 -840 Descending Cleveland Center
12:37PM 39.8636 -79.4553 North 278 320 7,100 -300 Descending Cleveland Center
12:37PM 39.8844 -79.4522 North 282 325 7,000 -720 Descending Cleveland Center
12:38PM 39.9428 -79.4458 North 278 320 6,400 -1,140 Descending Cleveland Center
12:38PM 39.9614 -79.4456 North 286 329 5,900 -1,500 Descending Cleveland Center
12:39PM 40.0175 -79.4364 North 272 313 4,900 -1,380 Descending Cleveland Center
12:39PM 40.0447 -79.4361 360° North 276 318 4,500 -420 Descending Cleveland Center
12:40PM 40.0864 -79.4297 North 259 298 4,500  Level Cleveland Center
12:40PM 40.1050 -79.4294 North 235 270 4,500  Level Cleveland Center
12:41PM 40.1489 -79.4261 North 236 272 4,500  Level Cleveland Center
12:41PM 40.1675 -79.4203 13° North 222 255 4,500 -900 Level Cleveland Center
12:42PM 40.2092 -79.4167 North 226 260 3,600 -1,500 Descending Cleveland Center
12:42PM 40.2197 -79.4167 360° North 215 247 3,200 -720 Descending Cleveland Center
12:43PM 40.2672 -79.3694 37° Northeast 209 241 2,700 -540 Descending Cleveland Center
12:45PM 40.2667 -79.4000 North  Level FlightAware Approximate
12:52PM 40.2746 -79.4068 North  Level Estimated
12:53PM 40.2746 -79.4068 North  Level Estimated
12:54PM 40.2746 -79.4068 North  Level Estimated
12:55PM 40.2746 -79.4068 North  Level Estimated
12:56PM 40.2746 -79.4068 North  Level Estimated
12:57PM 40.2746 -79.4068 North  Level Estimated
12:58PM 40.2746 -79.4068 North  Level Estimated
12:59PM 40.2746 -79.4068 North  Level Estimated